Time;durP1;ratioP1;P1;durP2;ratioP2;P2;SDS_P1;SDS_P2;PMS_P1;PMS_P2;Temp;Humidity;BMP_temperature;BMP_pressure;BME280_temperature;BME280_humidity;BME280_pressure;Samples;Min_cycle;Max_cycle;Signal;HPM_P1;HPM_P2
2021/11/04 00:01:31;;;;;;;3.88;2.22;;;;;19.10;99785.00;;;;5105842;28;20466;-78
2021/11/04 00:04:03;;;;;;;7.50;2.20;;;;;19.20;99791.00;;;;5106634;28;20077;-79
2021/11/04 00:06:33;;;;;;;6.75;2.22;;;;;19.20;99781.00;;;;5106887;28;20039;-79
2021/11/04 00:09:02;;;;;;;4.25;2.05;;;;;19.20;99760.00;;;;5107805;28;20140;-79
2021/11/04 00:11:33;;;;;;;12.43;2.60;;;;;19.30;99781.00;;;;5109922;28;20046;-79
2021/11/04 00:14:02;;;;;;;9.02;2.45;;;;;19.40;99845.00;;;;5110901;28;20338;-77
2021/11/04 00:16:32;;;;;;;8.27;3.38;;;;;20.10;99853.00;;;;5110511;28;20071;-78
2021/11/04 00:19:02;;;;;;;4.55;2.58;;;;;20.50;99858.00;;;;5091140;28;20071;-75
2021/11/04 00:21:32;;;;;;;9.95;1.85;;;;;20.80;99883.00;;;;5110122;28;20043;-76
2021/11/04 00:24:01;;;;;;;4.60;1.95;;;;;21.20;99946.00;;;;5104330;28;20079;-79
2021/11/04 00:26:31;;;;;;;5.15;3.33;;;;;21.30;99969.00;;;;5097089;28;20040;-77
2021/11/04 00:29:01;;;;;;;11.77;3.67;;;;;21.30;99994.00;;;;5089911;28;20906;-78
2021/11/04 00:31:30;;;;;;;12.90;4.47;;;;;21.30;100012.00;;;;5089260;28;20036;-75
2021/11/04 00:34:00;;;;;;;20.45;5.05;;;;;21.00;100010.00;;;;5092080;28;20035;-79
2021/11/04 00:36:30;;;;;;;32.28;6.65;;;;;20.40;99997.00;;;;5090439;28;20040;-78
2021/11/04 00:39:01;;;;;;;11.45;6.40;;;;;20.20;99996.00;;;;5088866;28;20142;-81
2021/11/04 00:41:30;;;;;;;;;;;;;20.10;100020.00;;;;5089675;28;20040;-79
2021/11/04 00:44:02;;;;;;;17.20;7.65;;;;;20.10;100041.00;;;;5089732;28;20411;-79
2021/11/04 00:46:32;;;;;;;19.52;9.07;;;;;20.20;100097.00;;;;5089661;28;20051;-81
2021/11/04 00:49:03;;;;;;;14.20;6.90;;;;;20.10;100073.00;;;;5088270;28;20499;-81
2021/11/04 00:51:32;;;;;;;41.55;7.10;;;;;19.90;100017.00;;;;5089300;28;20044;-82
2021/11/04 00:54:02;;;;;;;29.92;7.78;;;;;19.80;99948.00;;;;5090080;28;20048;-80
2021/11/04 00:56:32;;;;;;;21.13;7.03;;;;;19.80;99927.00;;;;5089178;28;20415;-80
2021/11/04 00:59:01;;;;;;;21.73;8.80;;;;;19.80;99921.00;;;;5070780;28;20529;-81
2021/11/04 01:01:31;;;;;;;16.40;7.35;;;;;19.80;99938.00;;;;5089224;28;20044;-80
2021/11/04 01:04:00;;;;;;;10.93;6.78;;;;;19.70;99913.00;;;;5089147;28;20067;-79
2021/11/04 01:06:31;;;;;;;12.02;7.80;;;;;19.70;99910.00;;;;5089815;28;20437;-81
2021/11/04 01:09:00;;;;;;;18.17;9.88;;;;;19.70;99890.00;;;;5087995;28;20438;-81
2021/11/04 01:11:30;;;;;;;26.55;10.95;;;;;19.70;99894.00;;;;5070233;28;20533;-79
2021/11/04 01:14:00;;;;;;;28.67;10.93;;;;;19.60;99881.00;;;;5089226;28;20113;-79
2021/11/04 01:16:30;;;;;;;19.37;8.80;;;;;19.60;99876.00;;;;5088733;28;20086;-79
2021/11/04 01:19:00;;;;;;;21.27;8.63;;;;;19.50;99883.00;;;;5088285;28;20318;-80
2021/11/04 01:21:29;;;;;;;36.60;10.65;;;;;19.40;99869.00;;;;5088677;28;20044;-81
2021/11/04 01:23:59;;;;;;;23.50;9.30;;;;;19.40;99867.00;;;;5088421;28;20040;-80
2021/11/04 01:26:29;;;;;;;42.30;11.55;;;;;19.30;99880.00;;;;5088285;28;20048;-82
2021/11/04 01:28:58;;;;;;;33.05;12.63;;;;;19.50;99869.00;;;;5069792;28;20048;-80
2021/11/04 01:31:28;;;;;;;21.23;12.07;;;;;19.50;99889.00;;;;5087973;28;20044;-81
2021/11/04 01:33:57;;;;;;;30.02;12.35;;;;;19.40;99898.00;;;;5069891;28;20414;-80
2021/11/04 01:36:27;;;;;;;61.42;16.85;;;;;19.30;99895.00;;;;5088903;28;20422;-81
2021/11/04 01:38:57;;;;;;;29.92;13.80;;;;;19.40;99894.00;;;;5088244;28;20503;-81
2021/11/04 01:41:27;;;;;;;27.35;14.73;;;;;19.40;99902.00;;;;5088574;28;20044;-80
2021/11/04 01:43:57;;;;;;;35.85;15.95;;;;;19.50;99903.00;;;;5088294;28;20044;-81
2021/11/04 01:46:27;;;;;;;28.30;16.42;;;;;19.50;99917.00;;;;5088812;28;20050;-81
2021/11/04 01:48:58;;;;;;;27.35;16.33;;;;;19.50;99907.00;;;;5087483;28;20048;-81
2021/11/04 01:51:27;;;;;;;30.83;15.93;;;;;19.50;99917.00;;;;5069783;28;20101;-82
2021/11/04 01:53:57;;;;;;;25.17;14.07;;;;;19.50;99897.00;;;;5069951;28;20465;-82
2021/11/04 01:56:26;;;;;;;28.23;15.25;;;;;19.40;99895.00;;;;5087773;28;20036;-82
2021/11/04 01:58:56;;;;;;;50.15;19.33;;;;;19.40;99908.00;;;;5069933;28;20082;-82
2021/11/04 02:01:26;;;;;;;28.20;14.52;;;;;19.40;99904.00;;;;5088009;28;20043;-82
2021/11/04 02:04:18;;;;;;;23.00;11.93;;;;;19.40;99922.00;;;;5088385;28;20044;-81
2021/11/04 02:07:16;;;;;;;28.85;13.30;;;;;19.40;99922.00;;;;5078178;28;20056;-82
2021/11/04 02:10:09;;;;;;;40.55;15.55;;;;;19.30;99917.00;;;;5070048;28;20052;-81
2021/11/04 02:13:01;;;;;;;58.00;18.05;;;;;19.30;99929.00;;;;5087192;28;20058;-81
2021/11/04 02:15:33;;;;;;;;;;;;;19.30;99920.00;;;;5088028;28;20777;-81
2021/11/04 02:18:07;;;;;;;35.63;14.40;;;;;19.30;99908.00;;;;5068956;28;19946;-80
2021/11/04 02:20:57;;;;;;;28.50;14.77;;;;;19.40;99915.00;;;;5087522;28;20044;-82
2021/11/04 02:23:59;;;;;;;25.80;13.07;;;;;19.40;99905.00;;;;5087476;28;20612;-81
2021/11/04 02:26:30;;;;;;;32.38;14.07;;;;;19.30;99907.00;;;;5084561;28;20048;-82
2021/11/04 02:29:01;;;;;;;63.85;18.80;;;;;19.30;99901.00;;;;5086477;28;20044;-81
2021/11/04 02:31:31;;;;;;;36.40;14.15;;;;;19.30;99906.00;;;;5086257;28;20094;-81
2021/11/04 02:34:02;;;;;;;45.08;16.08;;;;;19.30;99906.00;;;;5087968;28;20427;-81
2021/11/04 02:36:33;;;;;;;36.42;15.57;;;;;19.30;99894.00;;;;5068825;28;20052;-82
2021/11/04 02:39:04;;;;;;;43.30;15.18;;;;;19.30;99898.00;;;;5069236;28;20079;-82
2021/11/04 02:41:34;;;;;;;69.95;18.88;;;;;19.30;99902.00;;;;5086534;28;20075;-82
2021/11/04 02:44:09;;;;;;;60.25;18.45;;;;;19.20;99888.00;;;;5069428;28;20515;-80
2021/11/04 02:46:40;;;;;;;28.90;14.90;;;;;19.20;99894.00;;;;5087090;28;20171;-80
2021/11/04 02:49:11;;;;;;;;;;;;;19.20;99877.00;;;;5088270;28;20052;-80
2021/11/04 02:51:40;;;;;;;61.85;18.13;;;;;19.20;99872.00;;;;5087044;28;19974;-80
2021/11/04 02:54:10;;;;;;;31.25;14.18;;;;;19.20;99874.00;;;;5086423;28;20459;-82
2021/11/04 02:56:43;;;;;;;39.38;16.90;;;;;19.20;99886.00;;;;5086922;28;20044;-81
2021/11/04 02:59:18;;;;;;;47.20;18.90;;;;;19.20;99877.00;;;;5085923;28;20052;-81
2021/11/04 03:01:56;;;;;;;64.70;20.27;;;;;19.20;99873.00;;;;5086632;28;20036;-81
2021/11/04 03:04:27;;;;;;;44.95;15.98;;;;;19.10;99869.00;;;;5086750;28;20066;-81
2021/11/04 03:06:56;;;;;;;34.15;14.40;;;;;19.10;99860.00;;;;5068378;28;20048;-81
2021/11/04 03:09:25;;;;;;;47.78;16.58;;;;;19.10;99854.00;;;;5086888;28;20055;-81
2021/11/04 03:11:55;;;;;;;49.28;16.75;;;;;19.00;99857.00;;;;5068161;28;20105;-80
2021/11/04 03:14:25;;;;;;;54.78;18.38;;;;;19.00;99875.00;;;;5086244;28;20040;-80
2021/11/04 03:16:57;;;;;;;65.95;20.00;;;;;19.00;99865.00;;;;5068325;28;20051;-81
2021/11/04 03:19:28;;;;;;;43.35;16.35;;;;;19.00;99866.00;;;;5085632;28;20545;-81
2021/11/04 03:21:59;;;;;;;70.10;21.55;;;;;19.00;99865.00;;;;5086990;28;20097;-80
2021/11/04 03:24:30;;;;;;;45.63;17.70;;;;;19.00;99873.00;;;;5086091;28;20040;-81
2021/11/04 03:27:01;;;;;;;;;;;;;19.00;99874.00;;;;5087097;28;20453;-81
2021/11/04 03:29:35;;;;;;;46.47;18.25;;;;;18.90;99873.00;;;;5087230;28;19931;-80
2021/11/04 03:32:10;;;;;;;36.78;16.08;;;;;18.80;99878.00;;;;5086251;28;20682;-80
2021/11/04 03:34:42;;;;;;;37.15;16.55;;;;;18.80;99879.00;;;;5086240;28;20044;-81
2021/11/04 03:37:14;;;;;;;56.55;19.10;;;;;18.70;99879.00;;;;5085784;28;20090;-81
2021/11/04 03:39:45;;;;;;;54.83;17.52;;;;;18.70;99879.00;;;;5086154;28;20067;-81
2021/11/04 03:42:16;;;;;;;29.00;14.63;;;;;18.60;99872.00;;;;5068881;28;20063;-81
2021/11/04 03:44:47;;;;;;;38.10;16.30;;;;;18.60;99872.00;;;;5072814;28;20051;-81
2021/11/04 03:47:17;;;;;;;55.50;17.25;;;;;18.60;99863.00;;;;5089904;28;20040;-80
2021/11/04 03:49:51;;;;;;;100.68;24.10;;;;;18.50;99847.00;;;;5089528;28;20852;-82
2021/11/04 03:52:21;;;;;;;52.42;19.40;;;;;18.50;99853.00;;;;5090117;28;20058;-82
2021/11/04 03:54:52;;;;;;;56.30;20.45;;;;;18.50;99857.00;;;;5090787;28;20059;-80
2021/11/04 03:57:25;;;;;;;43.55;19.35;;;;;18.50;99846.00;;;;5090123;28;20503;-82
2021/11/04 03:59:55;;;;;;;40.97;18.40;;;;;18.60;99845.00;;;;5089754;28;20129;-80
2021/11/04 04:02:26;;;;;;;47.15;17.17;;;;;18.50;99822.00;;;;5089980;28;20571;-81
2021/11/04 04:04:56;;;;;;;63.72;22.55;;;;;18.50;99842.00;;;;5089710;28;20131;-81
2021/11/04 04:07:27;;;;;;;48.27;20.87;;;;;18.60;99842.00;;;;5090024;28;20040;-80
2021/11/04 04:09:58;;;;;;;67.20;24.38;;;;;18.60;99811.00;;;;5091174;28;20329;-82
2021/11/04 04:12:28;;;;;;;73.15;26.05;;;;;18.60;99811.00;;;;5073274;28;20056;-80
2021/11/04 04:14:57;;;;;;;85.80;28.15;;;;;18.60;99829.00;;;;5091001;28;20515;-81
2021/11/04 04:17:27;;;;;;;46.90;21.75;;;;;18.70;99840.00;;;;5072665;28;20102;-81
2021/11/04 04:19:58;;;;;;;72.88;25.55;;;;;18.70;99811.00;;;;5070970;28;20586;-81
2021/11/04 04:22:27;;;;;;;55.47;26.45;;;;;18.70;99820.00;;;;5071119;28;20044;-81
2021/11/04 04:24:57;;;;;;;43.58;24.05;;;;;18.90;99807.00;;;;5070064;28;20511;-81
2021/11/04 04:27:27;;;;;;;;;;;;;18.90;99802.00;;;;5088905;28;20132;-82
2021/11/04 04:29:58;;;;;;;43.13;22.70;;;;;18.90;99787.00;;;;5088156;28;20010;-82
2021/11/04 04:32:29;;;;;;;90.38;31.45;;;;;18.90;99778.00;;;;5071924;28;20420;-82
2021/11/04 04:34:59;;;;;;;148.48;38.75;;;;;18.80;99785.00;;;;5090009;28;20529;-81
2021/11/04 04:37:31;;;;;;;49.80;22.05;;;;;18.90;99789.00;;;;5090617;28;20047;-81
2021/11/04 04:40:00;;;;;;;67.30;25.33;;;;;18.80;99755.00;;;;5089901;28;20039;-81
2021/11/04 04:42:30;;;;;;;76.65;26.67;;;;;18.80;99758.00;;;;5090332;28;20556;-82
2021/11/04 04:45:00;;;;;;;82.43;28.05;;;;;18.80;99766.00;;;;5090874;28;20125;-82
2021/11/04 04:47:29;;;;;;;75.50;25.35;;;;;18.70;99768.00;;;;5090083;28;20039;-81
2021/11/04 04:49:59;;;;;;;72.15;25.17;;;;;18.70;99759.00;;;;5090707;28;20813;-81
2021/11/04 04:52:30;;;;;;;50.97;23.00;;;;;18.70;99754.00;;;;5073150;28;20126;-80
2021/11/04 04:55:00;;;;;;;51.22;23.15;;;;;18.70;99773.00;;;;5090628;28;20048;-82
2021/11/04 04:57:30;;;;;;;54.90;22.35;;;;;18.70;99754.00;;;;5091314;28;20036;-81
2021/11/04 04:59:59;;;;;;;47.08;21.48;;;;;18.70;99766.00;;;;5091279;28;20044;-81
2021/11/04 05:02:29;;;;;;;89.93;27.02;;;;;18.70;99755.00;;;;5072693;28;20495;-81
2021/11/04 05:04:58;;;;;;;86.07;28.15;;;;;18.70;99779.00;;;;5089824;28;20063;-82
2021/11/04 05:07:28;;;;;;;67.63;25.35;;;;;18.70;99749.00;;;;5090208;28;20044;-81
2021/11/04 05:09:58;;;;;;;45.35;21.13;;;;;18.70;99765.00;;;;5090322;28;20146;-82
2021/11/04 05:12:27;;;;;;;72.20;24.75;;;;;18.70;99759.00;;;;5071587;28;20052;-82
2021/11/04 05:14:57;;;;;;;58.65;23.75;;;;;18.80;99754.00;;;;5089593;28;20400;-80
2021/11/04 05:17:27;;;;;;;36.20;20.77;;;;;18.80;99750.00;;;;5089789;28;20522;-82
2021/11/04 05:19:57;;;;;;;40.97;20.80;;;;;18.80;99744.00;;;;5089758;28;20044;-80
2021/11/04 05:22:27;;;;;;;40.85;24.00;;;;;18.90;99743.00;;;;5090967;28;20040;-80
2021/11/04 05:24:56;;;;;;;66.55;25.63;;;;;18.80;99740.00;;;;5090174;28;20044;-83
2021/11/04 05:27:28;;;;;;;73.28;26.63;;;;;18.80;99760.00;;;;5090466;28;20105;-80
2021/11/04 05:29:58;;;;;;;107.88;28.25;;;;;18.70;99757.00;;;;5091075;28;20040;-81
2021/11/04 05:32:28;;;;;;;54.47;22.10;;;;;18.80;99739.00;;;;5089721;28;20510;-81
2021/11/04 05:34:57;;;;;;;144.30;32.92;;;;;18.70;99748.00;;;;5072678;28;20058;-83
2021/11/04 05:37:27;;;;;;;49.33;21.38;;;;;18.70;99758.00;;;;5090734;28;20065;-82
2021/11/04 05:39:56;;;;;;;47.78;21.10;;;;;18.70;99755.00;;;;5071915;28;20040;-81
2021/11/04 05:42:26;;;;;;;41.33;18.90;;;;;18.70;99758.00;;;;5089247;28;20414;-83
2021/11/04 05:44:55;;;;;;;34.58;18.27;;;;;18.80;99760.00;;;;5089081;28;20048;-82
2021/11/04 05:47:25;;;;;;;81.00;25.63;;;;;18.70;99757.00;;;;5071336;28;20786;-81
2021/11/04 05:49:55;;;;;;;59.72;22.50;;;;;18.70;99762.00;;;;5088939;28;20054;-82
2021/11/04 05:52:24;;;;;;;53.42;21.00;;;;;18.70;99760.00;;;;5089091;28;20109;-82
2021/11/04 05:54:57;;;;;;;53.53;22.02;;;;;18.70;99769.00;;;;5089266;28;20052;-80
2021/11/04 05:57:27;;;;;;;48.17;20.33;;;;;18.70;99759.00;;;;5070947;28;20044;-80
2021/11/04 05:59:57;;;;;;;53.90;19.83;;;;;18.70;99767.00;;;;5053558;28;20083;-81
2021/11/04 06:02:27;;;;;;;65.90;23.42;;;;;18.60;99753.00;;;;5087752;28;20044;-81
2021/11/04 06:04:57;;;;;;;77.80;26.33;;;;;18.60;99762.00;;;;5088800;28;20054;-80
2021/11/04 06:07:28;;;;;;;65.72;24.75;;;;;18.60;99764.00;;;;5088677;28;20052;-82
2021/11/04 06:09:58;;;;;;;;;;;;;18.60;99778.00;;;;5088755;28;20056;-82
2021/11/04 06:12:27;;;;;;;60.22;22.55;;;;;18.60;99781.00;;;;5069652;28;20338;-83
2021/11/04 06:14:57;;;;;;;144.50;31.95;;;;;18.60;99765.00;;;;5069820;28;20521;-81
2021/11/04 06:17:26;;;;;;;77.18;24.05;;;;;18.60;99773.00;;;;5087927;28;20044;-81
2021/11/04 06:19:56;;;;;;;52.17;21.73;;;;;18.60;99777.00;;;;5069479;28;20495;-83
2021/11/04 06:22:25;;;;;;;67.32;23.33;;;;;18.60;99765.00;;;;5087785;28;20619;-80
2021/11/04 06:24:55;;;;;;;62.83;23.05;;;;;18.60;99749.00;;;;5069244;28;20048;-81
2021/11/04 06:27:24;;;;;;;77.35;26.08;;;;;18.60;99761.00;;;;5088629;28;20368;-83
2021/11/04 06:29:54;;;;;;;52.85;21.70;;;;;18.50;99759.00;;;;5087526;28;20036;-82
2021/11/04 06:32:24;;;;;;;47.53;20.17;;;;;18.60;99772.00;;;;5088143;28;20064;-81
2021/11/04 06:34:54;;;;;;;39.25;19.85;;;;;18.60;99783.00;;;;5087837;28;20058;-81
2021/11/04 06:37:24;;;;;;;81.35;24.50;;;;;18.50;99764.00;;;;5086798;28;20526;-82
2021/11/04 06:39:53;;;;;;;35.03;16.00;;;;;18.50;99783.00;;;;5087783;28;20411;-83
2021/11/04 06:42:23;;;;;;;94.65;23.65;;;;;18.50;99770.00;;;;5087144;28;20075;-81
2021/11/04 06:44:52;;;;;;;74.88;21.45;;;;;18.40;99789.00;;;;5087048;28;20032;-82
2021/11/04 06:47:36;;;;;;;58.90;19.48;;;;;18.50;99800.00;;;;5086877;28;20506;-82
2021/11/04 06:50:07;;;;;;;32.17;16.23;;;;;18.50;99799.00;;;;5069299;28;20048;-81
2021/11/04 06:53:00;;;;;;;23.00;15.90;;;;;18.50;99788.00;;;;5069352;28;20036;-81
2021/11/04 06:55:32;;;;;;;22.75;15.30;;;;;18.50;99794.00;;;;5087376;28;20050;-83
2021/11/04 06:58:05;;;;;;;100.07;26.50;;;;;18.50;99797.00;;;;5068617;28;20090;-83
2021/11/04 07:00:38;;;;;;;26.15;15.13;;;;;18.40;99788.00;;;;5069411;28;20055;-81
2021/11/04 07:03:27;;;;;;;41.72;15.57;;;;;18.40;99797.00;;;;5087379;28;20075;-82
2021/11/04 07:06:23;;;;;;;38.88;16.92;;;;;18.40;99808.00;;;;5087985;28;20051;-81
2021/11/04 07:08:57;;;;;;;37.80;17.25;;;;;18.40;99811.00;;;;5086589;28;20044;-82
2021/11/04 07:11:31;;;;;;;88.47;24.50;;;;;18.40;99796.00;;;;5086616;28;20043;-81
2021/11/04 07:14:01;;;;;;;37.10;18.13;;;;;18.40;99785.00;;;;5086630;28;20054;-82
2021/11/04 07:16:32;;;;;;;32.22;16.35;;;;;18.40;99799.00;;;;5086760;28;20059;-83
2021/11/04 07:19:02;;;;;;;29.45;16.25;;;;;18.40;99800.00;;;;5087499;28;20410;-82
2021/11/04 07:21:35;;;;;;;36.45;17.42;;;;;18.40;99805.00;;;;5087449;28;20081;-82
2021/11/04 07:24:08;;;;;;;47.40;16.08;;;;;18.40;99798.00;;;;5086136;28;20043;-81
2021/11/04 07:26:47;;;;;;;122.15;27.65;;;;;18.40;99792.00;;;;5086960;28;20051;-82
2021/11/04 07:29:24;;;;;;;55.55;20.40;;;;;18.30;99794.00;;;;5086058;28;20044;-82
2021/11/04 07:31:54;;;;;;;80.88;22.33;;;;;18.40;99798.00;;;;5088722;28;20036;-81
2021/11/04 07:34:25;;;;;;;50.40;18.40;;;;;18.40;99809.00;;;;5075604;28;20052;-81
2021/11/04 07:36:56;;;;;;;49.97;19.27;;;;;18.40;99812.00;;;;5093711;28;20048;-82
2021/11/04 07:39:26;;;;;;;41.10;16.50;;;;;18.30;99806.00;;;;5075814;28;20051;-83
2021/11/04 07:41:57;;;;;;;114.35;26.30;;;;;18.30;99807.00;;;;5092580;28;20071;-82
2021/11/04 07:44:28;;;;;;;76.10;20.33;;;;;18.30;99805.00;;;;5089437;28;20044;-81
2021/11/04 07:46:58;;;;;;;59.97;19.42;;;;;18.30;99800.00;;;;5088693;28;20466;-82
2021/11/04 07:49:27;;;;;;;28.67;14.35;;;;;18.30;99792.00;;;;5087981;28;20040;-81
2021/11/04 07:52:00;;;;;;;26.92;15.27;;;;;18.40;99800.00;;;;5088431;28;20120;-82
2021/11/04 07:54:31;;;;;;;72.05;22.63;;;;;18.50;99808.00;;;;5070267;28;20435;-81
2021/11/04 07:57:01;;;;;;;103.70;25.13;;;;;18.50;99803.00;;;;5089013;28;20081;-82
2021/11/04 07:59:31;;;;;;;93.20;26.80;;;;;18.40;99807.00;;;;5088747;28;20041;-81
2021/11/04 08:02:01;;;;;;;132.32;28.08;;;;;18.40;99821.00;;;;5088298;28;20047;-81
2021/11/04 08:04:35;;;;;;;108.55;21.83;;;;;18.40;99809.00;;;;5088211;28;20040;-83
2021/11/04 08:07:04;;;;;;;46.38;19.15;;;;;18.50;99828.00;;;;5071131;28;20719;-82
2021/11/04 08:09:40;;;;;;;95.43;25.48;;;;;18.40;99825.00;;;;5088661;28;20055;-81
2021/11/04 08:12:11;;;;;;;140.32;29.40;;;;;18.40;99824.00;;;;5087178;28;20040;-81
2021/11/04 08:14:42;;;;;;;118.15;26.88;;;;;18.40;99830.00;;;;5087900;28;20089;-80
2021/11/04 08:17:11;;;;;;;101.60;24.52;;;;;18.40;99833.00;;;;5087237;28;20419;-81
2021/11/04 08:19:41;;;;;;;83.55;22.15;;;;;18.30;99841.00;;;;5088095;28;20113;-82
2021/11/04 08:22:10;;;;;;;94.25;22.70;;;;;18.30;99835.00;;;;5087984;28;20047;-82
2021/11/04 08:24:40;;;;;;;86.00;21.95;;;;;18.30;99839.00;;;;5069547;28;20071;-81
2021/11/04 08:27:09;;;;;;;75.93;19.98;;;;;18.30;99855.00;;;;5087947;28;20483;-81
2021/11/04 08:29:39;;;;;;;34.75;14.68;;;;;18.40;99854.00;;;;5069948;28;20044;-80
2021/11/04 08:32:11;;;;;;;39.67;15.80;;;;;18.40;99844.00;;;;5091578;28;20048;-82
2021/11/04 08:34:42;;;;;;;43.15;16.20;;;;;18.40;99850.00;;;;5090236;28;20052;-81
2021/11/04 08:37:12;;;;;;;32.70;15.52;;;;;18.40;99853.00;;;;5071823;28;20047;-82
2021/11/04 08:39:41;;;;;;;28.20;15.90;;;;;18.50;99851.00;;;;5089949;28;20459;-82
2021/11/04 08:42:13;;;;;;;33.83;16.23;;;;;18.60;99855.00;;;;5070827;28;20051;-82
2021/11/04 08:44:43;;;;;;;36.97;16.88;;;;;18.60;99864.00;;;;5088075;28;20041;-82
2021/11/04 08:47:12;;;;;;;22.80;15.85;;;;;18.70;99871.00;;;;5087242;28;20051;-81
2021/11/04 08:49:42;;;;;;;47.78;17.80;;;;;18.70;99859.00;;;;5087436;28;20047;-81
2021/11/04 08:52:13;;;;;;;49.47;19.08;;;;;18.70;99869.00;;;;5087891;28;20078;-81
2021/11/04 08:54:42;;;;;;;93.30;23.10;;;;;18.70;99859.00;;;;5089226;28;20043;-81
2021/11/04 08:57:12;;;;;;;49.05;16.88;;;;;18.60;99867.00;;;;5088903;28;20080;-79
2021/11/04 08:59:42;;;;;;;52.00;16.90;;;;;18.70;99866.00;;;;5088961;28;20129;-80
2021/11/04 09:02:16;;;;;;;36.15;15.27;;;;;18.70;99875.00;;;;5089882;28;20127;-83
2021/11/04 09:04:47;;;;;;;36.00;15.30;;;;;18.70;99874.00;;;;5089230;28;20430;-80
2021/11/04 09:07:18;;;;;;;28.15;13.05;;;;;18.70;99883.00;;;;5071676;28;20052;-80
2021/11/04 09:09:49;;;;;;;29.75;13.07;;;;;18.80;99888.00;;;;5070675;28;20077;-81
2021/11/04 09:12:19;;;;;;;30.10;12.48;;;;;18.70;99882.00;;;;5089048;28;20040;-81
2021/11/04 09:14:49;;;;;;;28.45;12.25;;;;;18.80;99892.00;;;;5088964;28;20124;-81
2021/11/04 09:17:19;;;;;;;28.17;12.75;;;;;18.80;99905.00;;;;5089098;28;20047;-81
2021/11/04 09:19:50;;;;;;;25.63;12.63;;;;;18.90;99905.00;;;;5088713;28;20052;-81
2021/11/04 09:22:21;;;;;;;20.10;11.70;;;;;18.90;99905.00;;;;5088426;28;20415;-81
2021/11/04 09:24:50;;;;;;;39.22;13.63;;;;;19.00;99918.00;;;;5088625;28;20416;-80
2021/11/04 09:27:20;;;;;;;18.90;11.25;;;;;19.10;99911.00;;;;5088780;28;20048;-80
2021/11/04 09:29:50;;;;;;;23.08;11.13;;;;;19.20;99918.00;;;;5088482;28;20172;-81
2021/11/04 09:32:20;;;;;;;30.08;11.25;;;;;19.20;99917.00;;;;5088417;28;20063;-81
2021/11/04 09:35:01;;;;;;;22.25;10.68;;;;;19.40;99922.00;;;;5055597;28;20048;-81
2021/11/04 09:37:31;;;;;;;22.27;9.75;;;;;19.40;99924.00;;;;5088578;28;20048;-81
2021/11/04 09:40:03;;;;;;;20.77;8.93;;;;;19.40;99934.00;;;;5087878;28;20047;-81
2021/11/04 09:42:33;;;;;;;21.77;8.90;;;;;19.50;99921.00;;;;5088272;28;20036;-82
2021/11/04 09:45:03;;;;;;;16.92;8.75;;;;;19.50;99934.00;;;;5069893;28;20052;-81
2021/11/04 09:47:34;;;;;;;23.30;8.70;;;;;20.20;99925.00;;;;5088539;28;20070;-81
2021/11/04 09:50:09;;;;;;;18.05;8.60;;;;;20.10;99935.00;;;;5088058;28;20044;-81
2021/11/04 09:56:19;;;;;;;11.70;6.07;;;;;20.20;99961.00;;;;5088592;28;20080;-81
2021/11/04 09:58:49;;;;;;;12.90;5.38;;;;;20.20;99953.00;;;;5070853;28;20047;-82
2021/11/04 10:01:28;;;;;;;9.23;5.07;;;;;20.70;99953.00;;;;5071813;28;20055;-80
2021/11/04 10:04:00;;;;;;;12.15;4.50;;;;;22.40;99764.00;;;;5090243;28;20059;-81
2021/11/04 10:06:36;;;;;;;9.80;3.80;;;;;26.60;99734.00;;;;5073526;28;20040;-81
2021/11/04 10:09:12;;;;;;;9.82;3.00;;;;;28.00;99726.00;;;;5093733;28;20064;-80
2021/11/04 10:11:46;;;;;;;9.68;2.30;;;;;28.60;99715.00;;;;5076097;28;20043;-81
2021/11/04 10:14:20;;;;;;;5.43;2.45;;;;;29.00;99710.00;;;;5095210;28;20059;-80
2021/11/04 10:16:51;;;;;;;6.95;2.00;;;;;29.40;99713.00;;;;5074815;28;20353;-80
2021/11/04 10:19:21;;;;;;;4.10;1.88;;;;;29.30;99725.00;;;;5088419;28;20040;-78
2021/11/04 10:21:55;;;;;;;13.57;2.50;;;;;29.50;99713.00;;;;5088462;28;20040;-81
2021/11/04 10:24:28;;;;;;;15.90;2.60;;;;;29.60;99725.00;;;;5093945;28;20046;-80
2021/11/04 10:26:58;;;;;;;13.07;2.90;;;;;29.50;99722.00;;;;5091624;28;20097;-81
2021/11/04 10:29:36;;;;;;;12.38;2.40;;;;;29.90;99725.00;;;;5090604;28;20071;-81
2021/11/04 10:32:06;;;;;;;10.88;2.72;;;;;29.90;99745.00;;;;5090950;28;20051;-82
2021/11/04 10:34:37;;;;;;;8.63;3.00;;;;;29.60;99739.00;;;;5073559;28;20052;-80
2021/11/04 10:37:16;;;;;;;4.80;1.92;;;;;30.60;99763.00;;;;5093268;28;20491;-81
2021/11/04 10:39:47;;;;;;;17.73;2.65;;;;;30.60;99761.00;;;;5090787;28;20082;-81
2021/11/04 10:42:16;;;;;;;14.70;1.98;;;;;30.60;99766.00;;;;5072509;28;20201;-80
2021/11/04 10:44:47;;;;;;;19.58;2.58;;;;;30.40;99772.00;;;;5090641;28;20056;-81
2021/11/04 10:47:21;;;;;;;20.83;2.67;;;;;30.30;99781.00;;;;5070190;28;20085;-80
2021/11/04 10:49:52;;;;;;;28.15;2.70;;;;;30.90;99782.00;;;;5088455;28;20093;-80
2021/11/04 10:52:28;;;;;;;32.55;3.88;;;;;31.40;99778.00;;;;5086950;28;20400;-81
2021/11/04 10:55:11;;;;;;;17.85;2.80;;;;;31.80;99770.00;;;;5087965;28;20526;-81
2021/11/04 10:57:44;;;;;;;6.03;2.00;;;;;31.20;99769.00;;;;5089998;28;20047;-80
2021/11/04 11:00:19;;;;;;;4.60;1.95;;;;;31.50;99782.00;;;;5089185;28;20503;-81
2021/11/04 11:03:01;;;;;;;8.35;2.30;;;;;31.70;99778.00;;;;5089258;28;20040;-81
2021/11/04 11:05:32;;;;;;;7.25;1.80;;;;;31.20;99758.00;;;;5087605;28;21127;-81
2021/11/04 11:08:09;;;;;;;14.10;2.85;;;;;31.50;99753.00;;;;5088853;28;20032;-80
2021/11/04 11:10:43;;;;;;;16.90;3.08;;;;;31.40;99758.00;;;;5073330;28;20572;-81
2021/11/04 11:13:20;;;;;;;8.87;2.50;;;;;31.60;99771.00;;;;5090063;28;20044;-81
2021/11/04 11:15:54;;;;;;;6.90;1.85;;;;;31.20;99762.00;;;;5089270;28;20055;-80
2021/11/04 11:18:25;;;;;;;13.30;2.70;;;;;31.40;99756.00;;;;5071108;28;20403;-80
2021/11/04 11:20:56;;;;;;;8.63;2.80;;;;;30.30;99756.00;;;;5088059;28;20040;-81
2021/11/04 11:23:28;;;;;;;5.82;2.60;;;;;30.50;99766.00;;;;5089190;28;20070;-82
2021/11/04 11:26:04;;;;;;;10.70;2.50;;;;;30.70;99769.00;;;;5087850;28;20762;-80
2021/11/04 11:28:37;;;;;;;10.77;2.58;;;;;30.10;99774.00;;;;5087902;28;20124;-80
2021/11/04 11:31:12;;;;;;;18.73;4.47;;;;;30.30;99794.00;;;;5087547;28;20564;-80
2021/11/04 11:34:11;;;;;;;11.77;4.10;;;;;29.90;99791.00;;;;5088141;28;20049;-81
2021/11/04 11:37:00;;;;;;;8.05;3.78;;;;;29.70;99826.00;;;;5072433;28;20552;-80
2021/11/04 11:39:41;;;;;;;9.13;3.40;;;;;28.80;99858.00;;;;5086512;28;20057;-81
2021/11/04 11:42:13;;;;;;;14.70;3.47;;;;;28.80;99966.00;;;;5086350;28;20135;-81
2021/11/04 11:44:50;;;;;;;6.05;2.92;;;;;28.90;99964.00;;;;5086665;28;20040;-81
2021/11/04 11:47:34;;;;;;;17.85;4.28;;;;;27.50;99964.00;;;;5086483;28;20416;-81
2021/11/04 11:50:16;;;;;;;13.60;3.25;;;;;28.10;99972.00;;;;5086390;28;20483;-81
2021/11/04 11:53:03;;;;;;;3.72;2.55;;;;;28.90;99963.00;;;;5086645;28;20032;-80
2021/11/04 11:55:49;;;;;;;8.93;2.50;;;;;28.20;99969.00;;;;5087195;28;20039;-80
2021/11/04 11:58:48;;;;;;;5.00;2.53;;;;;28.50;99971.00;;;;5069403;28;20051;-80
2021/11/04 12:01:19;;;;;;;9.40;2.80;;;;;28.00;99968.00;;;;5086293;28;20040;-80
2021/11/04 12:03:57;;;;;;;8.57;2.50;;;;;28.10;99979.00;;;;5088228;28;20122;-81
2021/11/04 12:06:28;;;;;;;7.80;3.00;;;;;27.70;99978.00;;;;5072011;28;20044;-81
2021/11/04 12:08:59;;;;;;;7.25;2.38;;;;;28.70;99971.00;;;;5090013;28;20112;-80
2021/11/04 12:11:36;;;;;;;6.25;2.17;;;;;28.10;99970.00;;;;5090074;28;20044;-81
2021/11/04 12:14:26;;;;;;;5.22;2.20;;;;;27.90;99965.00;;;;5090269;28;20042;-81
2021/11/04 12:17:05;;;;;;;4.70;2.38;;;;;28.10;99984.00;;;;5089813;28;20039;-78
2021/11/04 12:19:54;;;;;;;3.67;2.30;;;;;28.50;99975.00;;;;5090312;28;20407;-79
2021/11/04 12:22:42;;;;;;;8.23;2.72;;;;;29.30;99961.00;;;;5090649;28;20063;-80
2021/11/04 12:25:13;;;;;;;;;;;;;30.30;99978.00;;;;5090311;28;20043;-80
2021/11/04 12:27:45;;;;;;;10.30;2.70;;;;;29.30;99990.00;;;;5090174;28;19947;-80
2021/11/04 12:30:28;;;;;;;6.00;2.58;;;;;27.90;100040.00;;;;5090049;28;20075;-81
2021/11/04 12:33:03;;;;;;;13.88;2.83;;;;;28.40;99976.00;;;;5089865;28;20066;-79
2021/11/04 12:35:56;;;;;;;8.80;2.70;;;;;29.00;99983.00;;;;5089574;28;20051;-81